createdAt,value
2023-05-14T00:00:27.359Z,21.19
2023-05-14T00:02:54.837Z,21.21
2023-05-14T00:05:23.073Z,21.19
2023-05-14T00:07:50.403Z,21.22
2023-05-14T00:10:17.627Z,21.25
2023-05-14T00:12:44.762Z,21.20
2023-05-14T00:15:13.294Z,21.19
2023-05-14T00:17:40.379Z,21.23
2023-05-14T00:20:07.920Z,21.20
2023-05-14T00:22:35.234Z,21.19
2023-05-14T00:25:02.334Z,21.17
2023-05-14T00:27:29.519Z,21.17
2023-05-14T00:29:57.088Z,21.15
2023-05-14T00:32:26.189Z,21.18
2023-05-14T00:34:53.844Z,21.18
2023-05-14T00:37:21.373Z,21.19
2023-05-14T00:39:48.428Z,21.23
2023-05-14T00:42:15.650Z,21.18
2023-05-14T00:44:42.764Z,21.20
2023-05-14T00:47:09.922Z,21.20
2023-05-14T00:49:38.671Z,21.16
2023-05-14T00:52:06.919Z,21.19
2023-05-14T00:54:34.609Z,21.23
2023-05-14T00:57:02.214Z,21.24
2023-05-14T00:59:29.382Z,21.22
2023-05-14T01:01:56.680Z,21.68
2023-05-14T01:04:24.378Z,22.02
2023-05-14T01:06:59.954Z,22.02
2023-05-14T01:09:36.601Z,21.85
2023-05-14T01:12:08.714Z,21.44
2023-05-14T01:14:41.037Z,21.36
2023-05-14T01:17:11.126Z,21.32
2023-05-14T01:19:40.059Z,21.32
2023-05-14T01:22:08.798Z,21.33
2023-05-14T01:24:35.938Z,21.29
2023-05-14T01:27:07.642Z,21.28
2023-05-14T01:29:37.437Z,21.32
2023-05-14T01:32:06.645Z,21.24
2023-05-14T01:34:35.461Z,21.27
2023-05-14T01:37:03.161Z,21.23
2023-05-14T01:39:32.273Z,21.24
2023-05-14T01:42:00.291Z,21.24
2023-05-14T01:44:28.099Z,21.26
2023-05-14T01:46:55.226Z,21.23
2023-05-14T01:49:22.343Z,21.25
2023-05-14T01:51:50.178Z,21.30
2023-05-14T01:54:17.254Z,21.29
2023-05-14T01:56:45.897Z,21.26
2023-05-14T01:59:13.001Z,21.26
2023-05-14T02:01:40.226Z,21.21
2023-05-14T02:04:07.361Z,21.27
2023-05-14T02:06:34.574Z,21.22
2023-05-14T02:09:01.628Z,21.21
2023-05-14T02:11:28.719Z,21.20
2023-05-14T02:13:57.675Z,21.19
2023-05-14T02:16:25.401Z,21.24
2023-05-14T02:18:52.690Z,21.17
2023-05-14T02:21:19.932Z,21.25
2023-05-14T02:23:47.679Z,21.21
2023-05-14T02:26:14.892Z,21.19
2023-05-14T02:28:41.963Z,21.15
2023-05-14T02:31:10.678Z,21.22
2023-05-14T02:33:38.018Z,21.21
2023-05-14T02:36:05.369Z,21.14
2023-05-14T02:38:32.969Z,21.19
2023-05-14T02:41:00.102Z,21.16
2023-05-14T02:43:27.202Z,21.17
2023-05-14T02:45:54.394Z,21.15
2023-05-14T02:48:23.033Z,21.16
2023-05-14T02:50:50.571Z,21.19
2023-05-14T02:53:17.696Z,21.28
2023-05-14T02:55:45.377Z,21.25
2023-05-14T02:58:12.494Z,21.28
2023-05-14T03:00:40.152Z,21.33
2023-05-14T03:03:08.043Z,21.37
2023-05-14T03:05:37.237Z,21.28
2023-05-14T03:08:04.427Z,21.30
2023-05-14T03:10:31.501Z,21.35
2023-05-14T03:12:58.613Z,21.26
2023-05-14T03:15:25.827Z,21.35
2023-05-14T03:17:53.327Z,21.27
2023-05-14T03:20:20.696Z,21.17
2023-05-14T03:22:49.335Z,21.15
2023-05-14T03:25:16.555Z,20.56
2023-05-14T03:27:43.706Z,20.85
2023-05-14T03:30:12.230Z,21.02
2023-05-14T03:32:40.239Z,20.99
2023-05-14T03:35:08.108Z,21.10
2023-05-14T03:37:35.178Z,21.10
2023-05-14T03:40:04.757Z,21.14
2023-05-14T03:42:31.883Z,21.09
2023-05-14T03:44:59.092Z,21.11
2023-05-14T03:47:26.286Z,21.06
2023-05-14T03:49:53.724Z,21.10
2023-05-14T03:52:21.196Z,21.15
2023-05-14T03:54:49.063Z,21.26
2023-05-14T03:57:17.569Z,21.21
2023-05-14T03:59:44.665Z,21.20
2023-05-14T04:02:13.378Z,21.21
2023-05-14T04:04:41.261Z,21.19
2023-05-14T04:07:08.380Z,21.10
2023-05-14T04:09:35.493Z,21.09
2023-05-14T04:12:02.982Z,21.05
2023-05-14T04:14:32.104Z,21.12
2023-05-14T04:17:00.358Z,21.11
2023-05-14T04:19:28.207Z,21.13
2023-05-14T04:21:55.902Z,21.11
2023-05-14T04:24:23.219Z,21.06
2023-05-14T04:26:50.354Z,21.07
2023-05-14T04:29:18.432Z,21.06
2023-05-14T04:31:49.374Z,20.99
2023-05-14T04:34:16.765Z,21.11
2023-05-14T04:36:43.829Z,21.05
2023-05-14T04:39:10.859Z,21.07
2023-05-14T04:41:38.065Z,21.08
2023-05-14T04:44:06.518Z,21.14
2023-05-14T04:46:34.707Z,21.38
2023-05-14T04:49:04.217Z,21.22
2023-05-14T04:51:31.656Z,21.15
2023-05-14T04:53:59.275Z,21.44
2023-05-14T04:56:26.650Z,21.37
2023-05-14T04:58:53.864Z,21.45
2023-05-14T05:01:20.936Z,21.53
2023-05-14T05:03:48.587Z,21.34
2023-05-14T05:06:17.157Z,21.57
2023-05-14T05:08:44.367Z,21.39
2023-05-14T05:11:11.452Z,21.42
2023-05-14T05:13:38.670Z,21.65
2023-05-14T05:16:06.206Z,21.37
2023-05-14T05:18:33.448Z,21.35
2023-05-14T05:21:00.681Z,21.25
2023-05-14T05:23:29.173Z,21.27
2023-05-14T05:25:56.804Z,21.22
2023-05-14T05:28:24.035Z,21.16
2023-05-14T05:30:51.221Z,21.14
2023-05-14T05:33:18.509Z,21.13
2023-05-14T05:35:45.606Z,21.04
2023-05-14T05:38:12.675Z,21.16
2023-05-14T05:40:41.342Z,21.11
2023-05-14T05:43:08.526Z,21.12
2023-05-14T05:45:35.871Z,21.37
2023-05-14T05:48:03.065Z,21.32
2023-05-14T05:50:30.579Z,21.44
2023-05-14T05:52:57.773Z,21.30
2023-05-14T05:55:24.847Z,21.54
2023-05-14T05:57:53.334Z,21.51
2023-05-14T06:00:20.880Z,21.34
2023-05-14T06:02:49.494Z,21.14
2023-05-14T06:05:16.897Z,21.14
2023-05-14T06:07:44.054Z,21.14
2023-05-14T06:10:11.347Z,21.29
2023-05-14T06:12:38.643Z,21.15
2023-05-14T06:15:08.153Z,21.08
2023-05-14T06:17:35.495Z,21.06
2023-05-14T06:20:03.178Z,21.17
2023-05-14T06:22:30.419Z,21.21
2023-05-14T06:24:57.734Z,21.35
2023-05-14T06:27:24.817Z,21.21
2023-05-14T06:29:52.365Z,21.43
2023-05-14T06:32:21.398Z,21.46
2023-05-14T06:34:48.787Z,21.28
2023-05-14T06:37:16.079Z,21.42
2023-05-14T06:39:43.295Z,21.68
2023-05-14T06:42:10.322Z,21.74
2023-05-14T06:44:37.485Z,21.66
2023-05-14T06:47:05.310Z,21.75
2023-05-14T06:49:35.114Z,21.63
2023-05-14T06:52:02.865Z,21.52
2023-05-14T06:54:30.270Z,21.74
2023-05-14T06:56:57.405Z,21.73
2023-05-14T06:59:24.942Z,21.40
2023-05-14T07:01:52.153Z,21.34
2023-05-14T07:04:19.685Z,21.29
2023-05-14T07:06:48.254Z,21.42
2023-05-14T07:09:16.410Z,21.73
2023-05-14T07:11:44.154Z,21.38
2023-05-14T07:14:11.631Z,21.40
2023-05-14T07:16:38.924Z,21.32
2023-05-14T07:19:06.827Z,21.24
2023-05-14T07:21:35.097Z,21.27
2023-05-14T07:24:05.062Z,21.48
2023-05-14T07:26:32.640Z,21.38
2023-05-14T07:28:59.812Z,21.42
2023-05-14T07:31:27.944Z,21.31
2023-05-14T07:33:55.724Z,21.27
2023-05-14T07:36:24.055Z,21.21
2023-05-14T07:38:51.326Z,21.20
2023-05-14T07:41:20.438Z,21.21
2023-05-14T07:43:48.137Z,21.19
2023-05-14T07:46:15.344Z,21.25
2023-05-14T07:48:42.638Z,21.32
2023-05-14T07:51:09.922Z,21.29
2023-05-14T07:53:37.098Z,21.26
2023-05-14T07:56:04.386Z,21.31
2023-05-14T07:58:32.973Z,21.29
2023-05-14T08:01:00.523Z,21.23
2023-05-14T08:03:27.649Z,21.24
2023-05-14T08:05:54.891Z,21.38
2023-05-14T08:08:22.529Z,21.28
2023-05-14T08:10:49.632Z,21.25
2023-05-14T08:13:16.761Z,21.17
2023-05-14T08:15:45.768Z,21.12
2023-05-14T08:18:13.503Z,21.11
2023-05-14T08:20:40.786Z,21.10
2023-05-14T08:23:07.856Z,21.13
2023-05-14T08:25:35.387Z,21.02
2023-05-14T08:28:02.563Z,21.09
2023-05-14T08:30:29.822Z,21.10
2023-05-14T08:32:58.649Z,21.15
2023-05-14T08:35:26.499Z,21.12
2023-05-14T08:37:54.117Z,21.09
2023-05-14T08:40:21.538Z,21.16
2023-05-14T08:42:49.070Z,21.13
2023-05-14T08:45:18.321Z,21.07
2023-05-14T08:47:47.502Z,21.12
2023-05-14T08:50:17.311Z,21.48
2023-05-14T08:52:44.723Z,21.32
2023-05-14T08:55:13.457Z,21.34
2023-05-14T08:57:41.055Z,21.34
2023-05-14T09:00:09.938Z,21.49
2023-05-14T09:02:37.132Z,21.27
2023-05-14T09:05:04.530Z,21.19
2023-05-14T09:07:33.474Z,21.12
2023-05-14T09:10:01.733Z,21.10
2023-05-14T09:15:11.940Z,20.95
2023-05-14T09:17:39.088Z,20.95
2023-05-14T09:20:07.035Z,20.92
2023-05-14T09:25:06.309Z,21.02
2023-05-14T09:27:35.429Z,21.08
2023-05-14T09:30:06.767Z,21.06
2023-05-14T09:32:37.264Z,21.05
2023-05-14T09:35:14.698Z,21.04
2023-05-14T09:37:42.301Z,21.03
2023-05-14T09:40:11.596Z,21.09
2023-05-14T09:42:40.571Z,21.04
2023-05-14T09:45:09.214Z,21.14
2023-05-14T09:47:37.335Z,21.05
2023-05-14T09:50:06.755Z,21.12
2023-05-14T09:52:34.365Z,21.11
2023-05-14T09:55:01.531Z,21.00
2023-05-14T09:57:30.882Z,21.01
2023-05-14T09:59:58.400Z,20.99
2023-05-14T10:02:27.097Z,20.96
2023-05-14T10:04:55.182Z,21.01
2023-05-14T10:07:23.630Z,21.07
2023-05-14T10:09:55.535Z,21.14
2023-05-14T10:12:24.448Z,21.14
2023-05-14T10:14:57.609Z,21.15
2023-05-14T10:17:28.006Z,21.09
2023-05-14T10:19:57.818Z,21.12
2023-05-14T10:22:26.814Z,21.14
2023-05-14T10:24:54.364Z,21.12
2023-05-14T10:27:22.154Z,21.25
2023-05-14T10:29:52.354Z,21.23
2023-05-14T10:32:21.392Z,21.16
2023-05-14T10:34:48.431Z,21.16
2023-05-14T10:37:16.110Z,21.37
2023-05-14T10:39:44.051Z,21.39
2023-05-14T10:42:11.653Z,21.46
2023-05-14T10:44:40.349Z,21.62
2023-05-14T10:47:07.620Z,21.52
2023-05-14T10:49:43.392Z,21.35
2023-05-14T10:52:11.306Z,21.40
2023-05-14T10:54:38.969Z,21.49
2023-05-14T10:57:09.791Z,21.61
2023-05-14T10:59:36.829Z,21.52
2023-05-14T11:02:05.430Z,21.27
2023-05-14T11:04:32.797Z,21.16
2023-05-14T11:07:01.602Z,21.11
2023-05-14T11:09:29.548Z,21.24
2023-05-14T11:11:56.660Z,21.05
2023-05-14T11:14:24.044Z,20.92
2023-05-14T11:16:51.340Z,20.95
2023-05-14T11:19:21.837Z,21.27
2023-05-14T11:21:48.998Z,21.14
2023-05-14T11:24:17.542Z,21.22
2023-05-14T11:26:45.316Z,21.30
2023-05-14T11:29:12.798Z,21.34
2023-05-14T11:31:40.519Z,21.21
2023-05-14T11:34:08.181Z,21.27
2023-05-14T11:36:36.845Z,21.29
2023-05-14T11:39:04.235Z,21.17
2023-05-14T11:41:33.023Z,21.41
2023-05-14T11:44:00.372Z,21.33
2023-05-14T11:46:28.038Z,21.28
2023-05-14T11:48:55.522Z,21.23
2023-05-14T11:51:22.620Z,21.37
2023-05-14T11:53:50.024Z,21.33
2023-05-14T11:56:17.105Z,21.27
2023-05-14T11:58:49.483Z,21.26
2023-05-14T12:01:17.179Z,21.44
2023-05-14T12:03:44.459Z,21.18
2023-05-14T12:06:11.612Z,21.45
2023-05-14T12:08:38.684Z,21.50
2023-05-14T12:11:05.854Z,21.69
2023-05-14T12:13:33.063Z,21.34
2023-05-14T12:16:02.260Z,21.39
2023-05-14T12:18:30.318Z,21.32
2023-05-14T12:21:02.621Z,21.44
2023-05-14T12:23:30.875Z,21.45
2023-05-14T12:26:01.995Z,21.34
2023-05-14T12:28:29.607Z,21.21
2023-05-14T12:30:57.512Z,21.29
2023-05-14T12:33:27.596Z,21.29
2023-05-14T12:35:55.216Z,21.24
2023-05-14T12:38:22.439Z,20.95
2023-05-14T12:40:49.624Z,20.95
2023-05-14T12:43:17.317Z,20.95
2023-05-14T12:45:44.531Z,20.97
2023-05-14T12:48:11.758Z,21.01
2023-05-14T12:50:40.989Z,21.01
2023-05-14T12:53:08.453Z,21.06
2023-05-14T12:55:35.626Z,21.11
2023-05-14T12:58:02.834Z,21.14
2023-05-14T13:00:30.055Z,21.13
2023-05-14T13:02:57.200Z,21.18
2023-05-14T13:05:24.700Z,21.23
2023-05-14T13:07:54.174Z,21.29
2023-05-14T13:10:21.396Z,21.16
2023-05-14T13:12:48.463Z,21.19
2023-05-14T13:15:15.625Z,21.16
2023-05-14T13:17:42.722Z,21.14
2023-05-14T13:20:10.582Z,21.26
2023-05-14T13:22:38.030Z,21.21
2023-05-14T13:25:07.845Z,21.15
2023-05-14T13:27:35.192Z,21.04
2023-05-14T13:30:02.324Z,20.90
2023-05-14T13:32:30.056Z,20.99
2023-05-14T13:34:57.359Z,20.87
2023-05-14T13:37:25.236Z,21.09
2023-05-14T13:39:53.386Z,21.04
2023-05-14T13:42:22.333Z,20.80
2023-05-14T13:44:52.241Z,20.93
2023-05-14T13:47:19.468Z,20.82
2023-05-14T13:49:46.549Z,20.84
2023-05-14T13:52:14.312Z,20.83
2023-05-14T13:54:41.554Z,20.91
2023-05-14T13:57:08.647Z,20.89
2023-05-14T13:59:37.197Z,20.76
2023-05-14T14:02:05.053Z,20.68
2023-05-14T14:04:32.306Z,20.57
2023-05-14T14:06:59.409Z,20.49
2023-05-14T14:09:26.642Z,20.52
2023-05-14T14:11:53.850Z,20.48
2023-05-14T14:14:21.363Z,20.40
2023-05-14T14:16:49.957Z,20.59
2023-05-14T14:19:18.507Z,20.48
2023-05-14T14:21:45.896Z,20.70
2023-05-14T14:24:13.511Z,20.84
2023-05-14T14:26:40.593Z,20.82
2023-05-14T14:29:07.755Z,20.88
2023-05-14T14:31:35.260Z,20.93
2023-05-14T14:34:04.015Z,20.94
2023-05-14T14:36:31.327Z,21.03
2023-05-14T14:38:59.010Z,20.97
2023-05-14T14:41:26.207Z,20.97
2023-05-14T14:43:53.330Z,21.04
2023-05-14T14:46:20.855Z,21.08
2023-05-14T14:48:48.305Z,21.00
2023-05-14T14:51:17.054Z,21.10
2023-05-14T14:53:44.692Z,21.15
2023-05-14T14:56:11.962Z,21.11
2023-05-14T14:58:39.237Z,21.12
2023-05-14T15:01:06.339Z,21.14
2023-05-14T15:03:33.973Z,21.14
2023-05-14T15:06:01.330Z,21.25
2023-05-14T15:08:29.892Z,21.15
2023-05-14T15:10:57.118Z,21.16
2023-05-14T15:13:24.239Z,21.17
2023-05-14T15:15:51.656Z,21.09
2023-05-14T15:18:18.752Z,21.09
2023-05-14T15:20:46.407Z,21.12
2023-05-14T15:23:13.493Z,21.20
2023-05-14T15:25:42.122Z,21.11
2023-05-14T15:28:09.227Z,21.14
2023-05-14T15:30:36.319Z,21.12
2023-05-14T15:33:03.640Z,21.12
2023-05-14T15:35:30.855Z,21.05
2023-05-14T15:37:58.546Z,21.10
2023-05-14T15:40:27.720Z,21.07
2023-05-14T15:42:56.430Z,21.12
2023-05-14T15:45:23.869Z,20.99
2023-05-14T15:47:51.054Z,21.14
2023-05-14T15:50:18.137Z,21.14
2023-05-14T15:52:45.441Z,21.09
2023-05-14T15:55:12.621Z,21.15
2023-05-14T15:57:39.814Z,21.13
2023-05-14T16:00:09.133Z,21.09
2023-05-14T16:02:36.383Z,21.03
2023-05-14T16:05:03.752Z,21.13
2023-05-14T16:07:31.068Z,21.07
2023-05-14T16:09:58.154Z,21.17
2023-05-14T16:12:25.271Z,21.07
2023-05-14T16:14:52.378Z,21.12
2023-05-14T16:17:20.907Z,21.11
2023-05-14T16:19:48.302Z,21.10
2023-05-14T16:22:15.986Z,21.07
2023-05-14T16:24:43.175Z,21.05
2023-05-14T16:27:10.278Z,20.99
2023-05-14T16:29:37.374Z,21.03
2023-05-14T16:32:04.838Z,21.05
2023-05-14T16:34:33.583Z,21.05
2023-05-14T16:37:00.627Z,21.16
2023-05-14T16:39:27.745Z,21.01
2023-05-14T16:41:55.818Z,21.01
2023-05-14T16:44:23.185Z,21.17
2023-05-14T16:46:51.007Z,21.01
2023-05-14T16:49:18.107Z,21.21
2023-05-14T16:51:46.799Z,21.05
2023-05-14T16:54:13.894Z,20.99
2023-05-14T16:56:40.966Z,21.18
2023-05-14T16:59:08.571Z,21.09
2023-05-14T17:01:36.177Z,21.01
2023-05-14T17:06:30.053Z,21.05
2023-05-14T17:08:58.561Z,21.03
2023-05-14T17:11:25.840Z,21.04
2023-05-14T17:13:52.926Z,21.16
2023-05-14T17:16:20.141Z,21.06
2023-05-14T17:18:47.358Z,21.00
2023-05-14T17:21:14.631Z,21.03
2023-05-14T17:23:41.712Z,21.03
2023-05-14T17:26:10.307Z,21.06
2023-05-14T17:28:37.544Z,21.05
2023-05-14T17:31:04.833Z,21.03
2023-05-14T17:33:31.992Z,21.11
2023-05-14T17:35:59.202Z,20.96
2023-05-14T17:38:26.671Z,20.92
2023-05-14T17:40:53.771Z,21.12
2023-05-14T17:43:22.285Z,20.95
2023-05-14T17:45:54.549Z,20.95
2023-05-14T17:48:22.258Z,20.97
2023-05-14T17:50:49.525Z,20.95
2023-05-14T17:53:17.322Z,21.04
2023-05-14T17:55:44.474Z,21.00
2023-05-14T17:58:11.645Z,20.96
2023-05-14T18:00:40.692Z,20.87
2023-05-14T18:03:07.965Z,21.00
2023-05-14T18:05:35.399Z,21.02
2023-05-14T18:08:02.552Z,21.00
2023-05-14T18:10:29.664Z,20.98
2023-05-14T18:12:57.310Z,20.92
2023-05-14T18:15:25.042Z,20.88
2023-05-14T18:17:53.835Z,20.84
2023-05-14T18:20:21.351Z,20.82
2023-05-14T18:22:49.561Z,20.83
2023-05-14T18:25:16.781Z,20.84
2023-05-14T18:27:45.362Z,20.82
2023-05-14T18:30:14.997Z,20.82
2023-05-14T18:32:42.758Z,20.80
2023-05-14T18:35:11.923Z,20.84
2023-05-14T18:37:39.163Z,20.84
2023-05-14T18:40:06.946Z,20.83
2023-05-14T18:42:34.444Z,20.85
2023-05-14T18:45:01.674Z,20.85
2023-05-14T18:47:29.695Z,20.84
2023-05-14T18:49:56.863Z,20.87
2023-05-14T18:52:25.391Z,20.83
2023-05-14T18:54:52.564Z,20.86
2023-05-14T18:57:20.172Z,20.84
2023-05-14T18:59:47.289Z,20.83
2023-05-14T19:02:14.338Z,20.83
2023-05-14T19:04:51.724Z,20.82
2023-05-14T19:07:20.289Z,20.84
2023-05-14T19:09:48.904Z,20.82
2023-05-14T19:12:16.199Z,20.81
2023-05-14T19:14:43.490Z,20.83
2023-05-14T19:17:10.806Z,20.85
2023-05-14T19:19:37.978Z,20.82
2023-05-14T19:22:05.388Z,20.80
2023-05-14T19:24:32.513Z,20.82
2023-05-14T19:27:01.335Z,20.82
2023-05-14T19:29:28.437Z,20.82
2023-05-14T19:31:55.988Z,20.79
2023-05-14T19:34:23.297Z,20.76
2023-05-14T19:36:50.452Z,20.74
2023-05-14T19:39:17.522Z,20.75
2023-05-14T19:41:44.619Z,20.72
2023-05-14T19:44:13.239Z,20.72
2023-05-14T19:46:40.569Z,20.72
2023-05-14T19:49:07.710Z,20.69
2023-05-14T19:51:34.985Z,20.66
2023-05-14T19:54:02.212Z,20.64
2023-05-14T19:56:29.319Z,20.71
2023-05-14T19:58:56.410Z,20.63
2023-05-14T20:01:25.158Z,20.71
2023-05-14T20:03:52.381Z,20.69
2023-05-14T20:06:19.434Z,20.72
2023-05-14T20:08:46.613Z,20.70
2023-05-14T20:11:13.760Z,20.71
2023-05-14T20:13:40.834Z,20.69
2023-05-14T20:16:08.105Z,20.73
2023-05-14T20:18:36.884Z,20.77
2023-05-14T20:21:04.262Z,20.70
2023-05-14T20:23:31.401Z,20.71
2023-05-14T20:25:58.475Z,20.70
2023-05-14T20:28:25.630Z,20.64
2023-05-14T20:30:52.814Z,20.64
2023-05-14T20:33:19.898Z,20.66
2023-05-14T20:35:48.761Z,20.63
2023-05-14T20:38:15.799Z,20.63
2023-05-14T20:40:42.819Z,20.62
2023-05-14T20:43:09.946Z,20.58
2023-05-14T20:45:37.373Z,20.65
2023-05-14T20:48:05.056Z,20.63
2023-05-14T20:50:32.153Z,20.60
2023-05-14T20:53:00.721Z,20.60
2023-05-14T20:55:28.435Z,20.61
2023-05-14T20:57:55.526Z,20.58
2023-05-14T21:00:22.720Z,20.64
2023-05-14T21:02:50.168Z,20.60
2023-05-14T21:05:17.481Z,20.65
2023-05-14T21:07:44.513Z,20.61
2023-05-14T21:10:13.168Z,20.60
2023-05-14T21:12:59.391Z,20.62
2023-05-14T21:15:26.902Z,20.61
2023-05-14T21:17:54.172Z,20.60
2023-05-14T21:20:21.358Z,20.56
2023-05-14T21:22:48.446Z,20.57
2023-05-14T21:25:17.776Z,20.58
2023-05-14T21:27:44.955Z,20.57
2023-05-14T21:30:12.637Z,20.55
2023-05-14T21:32:39.806Z,20.48
2023-05-14T21:35:07.379Z,20.51
2023-05-14T21:37:34.585Z,20.47
2023-05-14T21:40:01.692Z,20.54
2023-05-14T21:42:30.326Z,20.54
2023-05-14T21:44:57.439Z,20.52
2023-05-14T21:47:24.984Z,20.58
2023-05-14T21:49:52.116Z,20.52
2023-05-14T21:52:19.167Z,20.52
2023-05-14T21:54:46.476Z,20.57
2023-05-14T21:57:13.611Z,20.54
2023-05-14T21:59:42.158Z,20.50
2023-05-14T22:02:09.248Z,20.51
2023-05-14T22:04:36.959Z,20.49
2023-05-14T22:07:04.753Z,20.50
2023-05-14T22:09:31.802Z,20.46
2023-05-14T22:11:59.525Z,20.49
2023-05-14T22:14:27.079Z,20.52
2023-05-14T22:16:55.753Z,20.46
2023-05-14T22:19:22.940Z,20.46
2023-05-14T22:21:50.089Z,20.44
2023-05-14T22:24:17.174Z,20.41
2023-05-14T22:26:44.339Z,20.45
2023-05-14T22:29:11.577Z,20.38
2023-05-14T22:31:38.842Z,20.36
2023-05-14T22:34:07.510Z,20.32
2023-05-14T22:36:34.575Z,20.34
2023-05-14T22:39:01.610Z,20.28
2023-05-14T22:41:28.684Z,20.27
2023-05-14T22:43:55.874Z,20.23
2023-05-14T22:46:23.055Z,20.22
2023-05-14T22:48:50.108Z,20.25
2023-05-14T22:51:18.586Z,20.26
2023-05-14T22:53:45.678Z,20.27
2023-05-14T22:56:12.754Z,20.27
2023-05-14T22:58:39.854Z,20.27
2023-05-14T23:01:07.460Z,20.27
2023-05-14T23:03:34.641Z,20.35
2023-05-14T23:06:01.974Z,20.35
2023-05-14T23:08:30.626Z,20.33
2023-05-14T23:10:57.696Z,20.35
2023-05-14T23:13:24.887Z,20.36
2023-05-14T23:15:51.992Z,20.36
2023-05-14T23:18:19.140Z,20.37
2023-05-14T23:20:46.317Z,20.39
2023-05-14T23:23:13.479Z,20.37
2023-05-14T23:25:42.069Z,20.37
2023-05-14T23:28:09.196Z,20.37
2023-05-14T23:30:36.243Z,20.35
2023-05-14T23:33:03.420Z,20.34
2023-05-14T23:35:30.562Z,20.34
2023-05-14T23:37:57.643Z,20.35
2023-05-14T23:40:24.701Z,20.33
2023-05-14T23:42:53.252Z,20.29
2023-05-14T23:45:20.921Z,20.30
2023-05-14T23:47:48.020Z,20.38
2023-05-14T23:50:15.148Z,20.30
2023-05-14T23:52:42.229Z,20.34
2023-05-14T23:55:09.856Z,20.33
2023-05-14T23:57:36.968Z,20.35
